METAR Formatted Surface Weather Observation
Issued by NWS

Home | Current Version | Previous Version | Text Only | Print | Product List | Glossary On
Versions: 1 2 3 4 5 6 7 8 9 10 11 12 13 14 15 16 17 18 19 20 21 22 23 24 25 26
000
SAUS46 KSEW 231258
MTRSMP
METAR KSMP 231256Z AUTO 03003KT 10SM CLR 10/07 A2995 RMK AO2 SLP130
T01000072 $



USA.gov is the U.S. government's official web portal to all federal, state and local government web resources and services.